createdAt,value
2018-12-01T00:00:45.467Z,38.87
2018-12-01T00:03:14.787Z,35.87
2018-12-01T00:06:00.938Z,43.80
2018-12-01T00:08:30.522Z,30.17
2018-12-01T00:11:00.067Z,37.93
2018-12-01T00:13:29.619Z,33.73
2018-12-01T00:15:58.916Z,40.80
2018-12-01T00:18:28.507Z,40.90
2018-12-01T00:20:58.070Z,44.27
2018-12-01T00:23:27.643Z,41.27
2018-12-01T00:25:57.239Z,42.80
2018-12-01T00:28:26.822Z,39.57
2018-12-01T00:30:56.370Z,39.17
2018-12-01T00:33:25.959Z,41.07
2018-12-01T00:35:55.500Z,40.60
2018-12-01T00:38:25.050Z,43.83
2018-12-01T00:40:54.616Z,38.47
2018-12-01T00:43:24.182Z,38.10
2018-12-01T00:45:53.727Z,39.40
2018-12-01T00:48:23.271Z,47.17
2018-12-01T00:50:52.839Z,41.87
2018-12-01T00:53:22.407Z,43.87
2018-12-01T00:55:51.951Z,35.87
2018-12-01T00:58:21.487Z,37.53
2018-12-01T01:00:51.054Z,40.43
2018-12-01T01:03:20.607Z,37.13
2018-12-01T01:05:50.206Z,40.60
2018-12-01T01:08:19.770Z,31.70
2018-12-01T01:10:49.339Z,40.77
2018-12-01T01:13:19.285Z,39.97
2018-12-01T01:15:48.908Z,40.10
2018-12-01T01:18:18.444Z,43.10
2018-12-01T01:20:48.015Z,42.17
2018-12-01T01:23:17.648Z,38.50
2018-12-01T01:25:47.195Z,41.83
2018-12-01T01:28:16.743Z,45.73
2018-12-01T01:30:46.311Z,40.00
2018-12-01T01:33:36.571Z,37.53
2018-12-01T01:41:51.063Z,35.80
2018-12-01T01:44:20.551Z,35.53
2018-12-01T01:46:50.137Z,44.37
2018-12-01T01:49:19.731Z,42.47
2018-12-01T01:51:49.323Z,43.97
2018-12-01T01:54:18.522Z,41.40
2018-12-01T01:56:47.987Z,39.47
2018-12-01T01:59:17.617Z,36.63
2018-12-01T02:01:47.183Z,59.30
2018-12-01T02:04:16.486Z,38.33
2018-12-01T02:06:45.831Z,41.97
2018-12-01T02:09:18.657Z,38.77
2018-12-01T02:11:49.235Z,44.60
2018-12-01T02:14:19.340Z,42.53
2018-12-01T02:16:55.825Z,37.30
2018-12-01T02:19:35.502Z,41.57
2018-12-01T02:22:06.643Z,42.30
2018-12-01T02:24:36.207Z,43.20
2018-12-01T02:27:05.995Z,35.50
2018-12-01T02:29:35.327Z,41.67
2018-12-01T02:32:05.020Z,46.13
2018-12-01T02:34:34.323Z,46.93
2018-12-01T02:37:03.952Z,37.57
2018-12-01T02:39:33.579Z,39.10
2018-12-01T02:42:08.674Z,43.50
2018-12-01T02:47:50.027Z,44.80
2018-12-01T02:50:26.635Z,45.13
2018-12-01T02:52:57.107Z,40.70
2018-12-01T02:55:26.720Z,45.30
2018-12-01T02:57:56.497Z,43.77
2018-12-01T03:00:26.606Z,45.13
2018-12-01T03:02:56.190Z,39.57
2018-12-01T03:05:25.916Z,40.60
2018-12-01T03:07:55.886Z,45.03
2018-12-01T03:10:26.628Z,48.07
2018-12-01T03:12:56.476Z,40.50
2018-12-01T03:15:26.075Z,45.80
2018-12-01T03:17:55.995Z,39.93
2018-12-01T03:20:25.658Z,40.07
2018-12-01T03:22:55.210Z,43.40
2018-12-01T03:25:24.786Z,46.33
2018-12-01T03:27:55.686Z,39.33
2018-12-01T03:30:26.087Z,42.43
2018-12-01T03:32:55.977Z,44.60
2018-12-01T03:35:26.211Z,44.93
2018-12-01T03:37:55.774Z,44.47
2018-12-01T03:40:25.108Z,45.00
2018-12-01T03:42:54.703Z,43.63
2018-12-01T03:45:24.324Z,43.47
2018-12-01T03:47:53.883Z,36.70
2018-12-01T03:50:24.122Z,44.57
2018-12-01T03:52:57.767Z,44.87
2018-12-01T03:55:29.458Z,42.80
2018-12-01T03:57:59.166Z,52.93
2018-12-01T04:00:32.551Z,44.57
2018-12-01T04:03:02.789Z,47.20
2018-12-01T04:05:32.514Z,43.33
2018-12-01T04:08:02.103Z,42.97
2018-12-01T04:10:31.683Z,47.83
2018-12-01T04:13:01.348Z,45.43
2018-12-01T04:15:31.011Z,54.03
2018-12-01T04:18:00.595Z,42.10
2018-12-01T04:20:30.266Z,48.17
2018-12-01T04:22:59.862Z,41.53
2018-12-01T04:25:29.469Z,45.60
2018-12-01T04:44:57.974Z,46.37
2018-12-01T04:47:27.495Z,43.60
2018-12-01T04:49:58.355Z,52.57
2018-12-01T04:52:27.929Z,64.43
2018-12-01T04:54:57.511Z,59.77
2018-12-01T04:57:26.715Z,72.40
2018-12-01T08:22:46.714Z,82.20
2018-12-01T08:25:17.358Z,59.13
2018-12-01T08:27:49.236Z,60.93
2018-12-01T08:30:19.966Z,66.80
2018-12-01T08:32:49.459Z,68.67
2018-12-01T08:35:19.459Z,59.60
2018-12-01T08:37:48.783Z,60.73
2018-12-01T08:40:19.515Z,73.63
2018-12-01T08:42:49.059Z,54.40
2018-12-01T08:45:18.639Z,56.27
2018-12-01T08:47:48.212Z,52.07
2018-12-01T08:50:18.906Z,59.47
2018-12-01T08:52:48.476Z,59.07
2018-12-01T08:55:18.213Z,56.13
2018-12-01T08:57:47.726Z,55.53
2018-12-01T09:00:23.265Z,54.50
2018-12-01T09:02:54.491Z,65.27
2018-12-01T09:05:24.058Z,66.90
2018-12-01T09:07:53.602Z,69.03
2018-12-01T09:10:23.146Z,64.50
2018-12-01T09:12:52.798Z,56.83
2018-12-01T09:15:21.970Z,70.47
2018-12-01T09:17:51.456Z,70.63
2018-12-01T09:20:21.019Z,60.87
2018-12-01T09:22:50.567Z,78.13
2018-12-01T09:25:19.750Z,83.13
2018-12-01T09:27:49.243Z,74.70
2018-12-01T09:30:21.142Z,69.43
2018-12-01T09:32:50.717Z,74.80
2018-12-01T09:35:19.942Z,74.57
2018-12-01T09:37:49.411Z,74.47
2018-12-01T09:40:20.172Z,92.70
2018-12-01T09:42:49.926Z,84.47
2018-12-01T09:45:20.724Z,74.37
2018-12-01T09:47:50.261Z,78.17
2018-12-01T09:50:19.719Z,70.00
2018-12-01T09:52:51.467Z,75.63
2018-12-01T09:55:22.184Z,76.70
2018-12-01T09:57:51.670Z,70.43
2018-12-01T10:00:24.559Z,82.73
2018-12-01T10:02:54.054Z,112.53
2018-12-01T10:05:23.373Z,71.07
2018-12-01T10:07:52.840Z,102.37
2018-12-01T10:10:23.291Z,79.00
2018-12-01T10:12:54.753Z,71.50
2018-12-01T10:15:25.354Z,69.37
2018-12-01T10:17:54.967Z,74.47
2018-12-01T10:20:39.258Z,73.07
2018-12-01T10:23:11.867Z,70.43
2018-12-01T10:25:41.417Z,68.93
2018-12-01T10:28:11.431Z,77.17
2018-12-01T10:30:41.024Z,71.20
2018-12-01T10:33:10.582Z,81.23
2018-12-01T10:35:40.111Z,77.23
2018-12-01T10:38:13.406Z,82.60
2018-12-01T10:40:42.963Z,74.43
2018-12-01T10:43:12.596Z,79.90
2018-12-01T10:45:42.161Z,79.03
2018-12-01T10:48:11.728Z,80.17
2018-12-01T10:50:41.303Z,82.33
2018-12-01T10:53:10.915Z,73.27
2018-12-01T10:55:40.478Z,83.33
2018-12-01T10:58:14.467Z,93.73
2018-12-01T11:00:50.213Z,81.07
2018-12-01T11:03:25.274Z,75.43
2018-12-01T11:05:55.675Z,96.60
2018-12-01T11:08:24.838Z,87.50
2018-12-01T11:10:55.369Z,94.63
2018-12-01T11:13:24.079Z,71.20
2018-12-01T11:15:53.637Z,82.50
2018-12-01T11:18:23.263Z,80.47
2018-12-01T11:20:52.875Z,84.43
2018-12-01T11:23:22.483Z,88.90
2018-12-01T11:25:52.050Z,99.17
2018-12-01T11:28:21.607Z,82.27
2018-12-01T11:30:51.163Z,89.07
2018-12-01T11:33:20.838Z,79.10
2018-12-01T11:35:50.507Z,90.57
2018-12-01T11:38:20.051Z,95.17
2018-12-01T11:40:49.627Z,79.83
2018-12-01T11:43:19.154Z,80.23
2018-12-01T11:45:48.699Z,84.27
2018-12-01T11:48:18.342Z,85.90
2018-12-01T11:50:47.903Z,86.47
2018-12-01T11:53:17.497Z,87.60
2018-12-01T11:55:47.071Z,88.07
2018-12-01T11:58:16.619Z,72.07
2018-12-01T12:00:46.172Z,80.23
2018-12-01T12:03:15.755Z,81.70
2018-12-01T12:05:45.305Z,68.17
2018-12-01T12:08:20.708Z,72.53
2018-12-01T12:10:50.310Z,75.67
2018-12-01T12:13:21.046Z,63.77
2018-12-01T12:15:50.648Z,72.60
2018-12-01T12:18:20.555Z,80.43
2018-12-01T12:20:50.225Z,69.13
2018-12-01T12:23:19.788Z,72.57
2018-12-01T12:25:49.331Z,69.17
2018-12-01T12:28:18.546Z,83.13
2018-12-01T12:30:48.051Z,83.27
2018-12-01T12:33:18.361Z,68.87
2018-12-01T12:35:48.663Z,91.50
2018-12-01T12:38:18.077Z,67.70
2018-12-01T12:40:47.620Z,71.63
2018-12-01T12:43:17.158Z,67.73
2018-12-01T12:45:46.762Z,66.13
2018-12-01T12:48:21.624Z,66.40
2018-12-01T12:50:55.405Z,69.70
2018-12-01T12:53:25.191Z,75.80
2018-12-01T12:55:54.793Z,66.87
2018-12-01T12:58:24.387Z,67.70
2018-12-01T13:00:54.071Z,64.60
2018-12-01T13:03:23.243Z,84.40
2018-12-01T13:05:52.703Z,73.57
2018-12-01T13:08:22.414Z,73.37
2018-12-01T13:13:43.546Z,73.13
2018-12-01T13:16:13.012Z,70.27
2018-12-01T13:18:42.570Z,63.67
2018-12-01T13:21:12.154Z,71.07
2018-12-01T13:23:41.330Z,77.13
2018-12-01T13:26:11.207Z,80.30
2018-12-01T13:28:40.813Z,70.40
2018-12-01T13:31:10.390Z,75.57
2018-12-01T13:33:39.956Z,72.93
2018-12-01T13:36:09.551Z,67.27
2018-12-01T13:38:39.164Z,77.03
2018-12-01T13:41:09.353Z,79.40
2018-12-01T13:43:39.278Z,108.00
2018-12-01T13:46:09.123Z,74.73
2018-12-01T13:48:38.820Z,95.63
2018-12-01T13:51:08.476Z,86.80
2018-12-01T13:53:38.085Z,84.00
2018-12-01T13:56:07.635Z,82.63
2018-12-01T13:58:37.235Z,106.73
2018-12-01T14:01:07.177Z,86.20
2018-12-01T14:03:36.363Z,89.63
2018-12-01T14:06:06.487Z,95.63
2018-12-01T14:08:36.051Z,89.97
2018-12-01T14:11:06.690Z,91.93
2018-12-01T14:13:37.746Z,78.93
2018-12-01T14:16:07.035Z,86.33
2018-12-01T14:18:36.583Z,87.27
2018-12-01T14:21:06.205Z,101.93
2018-12-01T14:23:35.472Z,97.13
2018-12-01T14:26:05.427Z,91.50
2018-12-01T14:28:35.023Z,101.47
2018-12-01T14:31:05.185Z,104.23
2018-12-01T14:33:35.178Z,137.27
2018-12-01T14:36:05.041Z,87.43
2018-12-01T14:38:34.606Z,84.00
2018-12-01T14:41:03.811Z,97.27
2018-12-01T14:43:32.890Z,90.73
2018-12-01T14:46:02.366Z,90.50
2018-12-01T14:48:31.966Z,103.30
2018-12-01T14:51:01.531Z,102.33
2018-12-01T14:53:31.765Z,102.77
2018-12-01T14:56:01.346Z,103.07
2018-12-01T14:58:30.917Z,120.13
2018-12-01T15:01:00.464Z,105.27
2018-12-01T15:03:30.055Z,118.93
2018-12-01T15:05:59.638Z,106.60
2018-12-01T15:08:29.235Z,110.40
2018-12-01T15:10:58.791Z,104.73
2018-12-01T15:13:28.345Z,98.27
2018-12-01T15:15:57.975Z,116.20
2018-12-01T15:18:27.555Z,118.00
2018-12-01T15:20:56.737Z,102.90
2018-12-01T15:23:25.825Z,106.80
2018-12-01T15:25:55.113Z,102.00
2018-12-01T15:28:24.791Z,119.20
2018-12-01T15:30:54.391Z,122.00
2018-12-01T15:33:23.858Z,105.60
2018-12-01T15:35:53.367Z,107.50
2018-12-01T15:38:23.095Z,112.70
2018-12-01T15:40:53.042Z,109.70
2018-12-01T15:43:22.751Z,108.77
2018-12-01T15:45:52.337Z,108.30
2018-12-01T15:48:21.673Z,123.87
2018-12-01T15:50:51.162Z,127.60
2018-12-01T15:53:22.008Z,167.47
2018-12-01T15:55:51.571Z,184.23
2018-12-01T15:58:22.553Z,194.00
2018-12-01T16:00:52.669Z,193.03
2018-12-01T16:03:21.846Z,179.50
2018-12-01T16:05:52.096Z,182.47
2018-12-01T16:08:21.696Z,175.47
2018-12-01T16:10:51.450Z,198.50
2018-12-01T16:13:22.305Z,192.67
2018-12-01T16:15:54.316Z,262.57
2018-12-01T16:18:23.524Z,236.20
2018-12-01T16:20:53.015Z,190.83
2018-12-01T16:23:22.759Z,162.33
2018-12-01T16:25:52.910Z,190.30
2018-12-01T16:28:22.101Z,249.90
2018-12-01T16:30:51.850Z,181.50
2018-12-01T16:33:22.001Z,226.47
2018-12-01T16:35:51.950Z,336.37
2018-12-01T16:38:23.031Z,277.23
2018-12-01T16:40:54.087Z,273.23
2018-12-01T16:43:24.094Z,300.90
2018-12-01T16:45:54.016Z,267.27
2018-12-01T16:48:23.818Z,327.37
2018-12-01T16:50:53.593Z,310.90
2018-12-01T16:53:23.718Z,311.90
2018-12-01T16:55:53.347Z,272.53
2018-12-01T16:58:23.052Z,291.10
2018-12-01T17:00:53.156Z,274.10
2018-12-01T17:03:22.699Z,248.20
2018-12-01T17:05:54.223Z,307.70
2018-12-01T17:08:24.031Z,263.33
2018-12-01T17:10:53.175Z,218.43
2018-12-01T17:13:22.723Z,333.47
2018-12-01T17:15:52.298Z,331.93
2018-12-01T17:18:21.862Z,328.60
2018-12-01T17:20:51.494Z,303.67
2018-12-01T17:23:21.077Z,382.10
2018-12-01T17:25:50.638Z,353.83
2018-12-01T17:28:20.550Z,312.53
2018-12-01T17:30:50.696Z,361.03
2018-12-01T17:33:20.331Z,440.30
2018-12-01T17:35:49.919Z,422.93
2018-12-01T17:38:20.868Z,437.73
2018-12-01T17:41:29.855Z,518.87
2018-12-01T17:44:03.548Z,475.00
2018-12-01T17:46:33.150Z,431.97
2018-12-01T17:49:03.448Z,429.50
2018-12-01T17:51:33.042Z,474.13
2018-12-01T17:54:07.555Z,491.90
2018-12-01T17:56:37.186Z,455.10
2018-12-01T17:59:07.023Z,575.53
2018-12-01T18:01:36.599Z,452.07
2018-12-01T18:04:06.759Z,455.73
2018-12-01T18:06:36.318Z,364.87
2018-12-01T18:09:08.363Z,515.60
2018-12-01T18:11:38.011Z,519.90
2018-12-01T18:14:09.387Z,578.50
2018-12-01T18:16:39.157Z,456.13
2018-12-01T18:19:08.706Z,391.10
2018-12-01T18:21:38.319Z,519.80
2018-12-01T18:24:07.887Z,477.20
2018-12-01T18:26:37.430Z,434.37
2018-12-01T18:29:07.004Z,554.63
2018-12-01T18:31:36.591Z,543.43
2018-12-01T18:34:12.335Z,586.00
2018-12-01T18:36:41.939Z,562.83
2018-12-01T18:39:26.134Z,582.60
2018-12-01T18:41:56.075Z,565.73
2018-12-01T18:44:25.626Z,546.53
2018-12-01T18:46:55.170Z,581.40
2018-12-01T18:49:24.754Z,538.53
2018-12-01T18:51:54.350Z,355.07
2018-12-01T18:54:23.891Z,321.63
2018-12-01T18:56:53.470Z,391.80
2018-12-01T18:59:23.014Z,349.27
2018-12-01T19:01:52.899Z,375.57
2018-12-01T19:04:22.497Z,389.00
2018-12-01T19:06:52.039Z,522.77
2018-12-01T19:09:21.591Z,451.60
2018-12-01T19:11:50.798Z,522.97
2018-12-01T19:14:19.878Z,478.50
2018-12-01T19:16:49.368Z,476.47
2018-12-01T19:19:18.552Z,589.27
2018-12-01T19:21:48.032Z,527.13
2018-12-01T19:24:17.210Z,501.80
2018-12-01T19:26:46.315Z,554.70
2018-12-01T19:29:15.406Z,669.37
2018-12-01T19:31:44.479Z,593.77
2018-12-01T19:34:13.970Z,570.67
2018-12-01T19:36:43.512Z,551.73
2018-12-01T19:39:13.066Z,600.40
2018-12-01T19:41:42.604Z,547.80
2018-12-01T19:44:12.152Z,593.90
2018-12-01T19:46:41.695Z,696.57
2018-12-01T19:49:11.227Z,557.33
2018-12-01T19:51:40.798Z,635.77
2018-12-01T19:54:10.386Z,602.23
2018-12-01T19:56:39.947Z,605.83
2018-12-01T19:59:09.524Z,582.23
2018-12-01T20:01:39.071Z,723.43
2018-12-01T20:04:08.655Z,630.33
2018-12-01T20:06:38.201Z,682.90
2018-12-01T20:09:08.967Z,649.23
2018-12-01T20:11:38.515Z,715.87
2018-12-01T20:14:10.750Z,604.53
2018-12-01T20:16:42.369Z,702.50
2018-12-01T20:19:11.967Z,612.70
2018-12-01T20:21:41.526Z,602.83
2018-12-01T20:24:11.069Z,502.03
2018-12-01T20:26:41.860Z,492.37
2018-12-01T20:29:11.461Z,579.07
2018-12-01T20:31:41.028Z,411.23
2018-12-01T20:34:10.839Z,448.03
2018-12-01T20:36:45.376Z,488.07
2018-12-01T20:39:16.667Z,452.80
2018-12-01T20:41:46.210Z,422.27
2018-12-01T20:44:15.421Z,332.00
2018-12-01T20:46:44.931Z,364.73
2018-12-01T20:49:14.484Z,347.00
2018-12-01T20:51:43.654Z,359.93
2018-12-01T20:54:19.156Z,319.07
2018-12-01T20:56:48.599Z,351.03
2018-12-01T20:59:18.159Z,320.07
2018-12-01T21:01:47.322Z,288.77
2018-12-01T21:04:16.783Z,285.87
2018-12-01T21:06:45.954Z,245.47
2018-12-01T21:09:15.691Z,224.97
2018-12-01T21:11:45.359Z,222.63
2018-12-01T21:14:14.522Z,240.17
2018-12-01T21:16:44.015Z,209.70
2018-12-01T21:19:13.565Z,175.30
2018-12-01T21:21:43.122Z,158.37
2018-12-01T21:24:12.318Z,198.40
2018-12-01T21:26:41.783Z,189.43
2018-12-01T21:29:11.153Z,183.70
2018-12-01T21:31:44.138Z,181.10
2018-12-01T21:34:17.359Z,173.07
2018-12-01T21:36:46.612Z,182.20
2018-12-01T21:39:17.454Z,172.63
2018-12-01T21:41:47.331Z,180.20
2018-12-01T21:44:16.872Z,172.13
2018-12-01T21:46:46.403Z,195.13
2018-12-01T21:49:15.995Z,170.13
2018-12-01T21:51:45.579Z,158.17
2018-12-01T21:54:15.147Z,147.73
2018-12-01T21:56:44.860Z,150.50
2018-12-01T21:59:17.995Z,172.90
2018-12-01T22:01:47.575Z,176.57
2018-12-01T22:04:17.145Z,146.50
2018-12-01T22:06:46.353Z,175.50
2018-12-01T22:09:15.824Z,152.57
2018-12-01T22:11:45.375Z,153.20
2018-12-01T22:14:15.166Z,173.40
2018-12-01T22:16:44.631Z,155.57
2018-12-01T22:19:14.170Z,140.23
2018-12-01T22:21:43.750Z,134.17
2018-12-01T22:24:12.930Z,159.40
2018-12-01T22:26:42.587Z,143.27
2018-12-01T22:29:12.210Z,140.73
2018-12-01T22:31:41.763Z,141.57
2018-12-01T22:34:11.319Z,150.30
2018-12-01T22:36:40.878Z,149.10
2018-12-01T22:39:11.159Z,139.97
2018-12-01T22:41:40.702Z,133.67
2018-12-01T22:44:10.253Z,155.60
2018-12-01T22:46:39.790Z,157.83
2018-12-01T22:49:09.252Z,163.80
2018-12-01T22:51:38.830Z,155.57
2018-12-01T22:54:08.491Z,171.47
2018-12-01T22:56:38.067Z,157.97
2018-12-01T22:59:07.623Z,153.53
2018-12-01T23:01:37.286Z,157.43
2018-12-01T23:04:07.560Z,142.13
2018-12-01T23:06:37.115Z,149.13
2018-12-01T23:09:07.098Z,148.97
2018-12-01T23:11:36.375Z,153.47
2018-12-01T23:14:06.083Z,145.00
2018-12-01T23:16:35.670Z,139.97
2018-12-01T23:19:05.007Z,139.57
2018-12-01T23:21:34.531Z,145.33
2018-12-01T23:24:03.749Z,133.00
2018-12-01T23:26:33.295Z,138.47
2018-12-01T23:29:02.951Z,132.70
2018-12-01T23:31:32.523Z,140.30
2018-12-01T23:34:01.731Z,133.30
2018-12-01T23:36:36.107Z,130.10
2018-12-01T23:39:05.650Z,125.77
2018-12-01T23:41:35.168Z,127.90
2018-12-01T23:44:04.755Z,114.33
2018-12-01T23:46:34.227Z,131.00
2018-12-01T23:49:03.804Z,127.83
2018-12-01T23:51:33.364Z,129.17
2018-12-01T23:54:02.695Z,122.90
2018-12-01T23:56:32.277Z,121.93
2018-12-01T23:59:01.839Z,112.90
